Weather observations for the past three days for
Charlotte, Fitch H Beach Airport
Metric (Imperial)
Date Time (edt) Wind (kph) Vis. (km) Weather Sky Cond. Temperature (ºC) Relative Humidity Wind Chill (°C) Heat Index (°C) Pressure Precipitation (cm)
Air Dwpt 6 hour altimeter (cm) sea level (mb) 1 hr 3 hr 6 hr
Max. Min.
04 22:35 SW 56 G 74 16.09 Light Rain and Windy BKN100 BKN120 19 11 60% 74.93 0.0
04 22:15 SW 31 G 39 16.09 Fair CLR 20 11 56% 74.88 0.0
04 21:55 SW 22 G 35 16.09 Fair CLR 20 11 56% 74.9 0.0
04 21:35 SW 28 G 44 16.09 Fair CLR 20 11 56% 74.9 0.0
04 21:15 SW 20 G 41 16.09 Fair CLR 20 11 56% 74.9 0.0
04 20:55 SW 26 G 43 16.09 A Few Clouds FEW100 21 10 50% 74.88 0.0
04 20:35 SW 31 G 56 16.09 Mostly Cloudy BKN090 22 10 47% 74.88 0.0
04 20:15 SW 22 G 31 16.09 Partly Cloudy SCT080 22 8 41% 74.85 0.0
04 19:55 W 11 16.09 Fair CLR 23 8 24.4 22.2 38% 74.85 0.0
04 19:35 W 11 G 33 16.09 Fair CLR 23 8 38% 74.85 0.0
04 19:15 W 15 G 26 16.09 A Few Clouds FEW080 23 9 41% 74.88 0.0
04 18:55 W 19 16.09 Partly Cloudy SCT080 SCT120 23 8 38% 74.88 0.0
04 18:35 W 22 16.09 A Few Clouds FEW080 24 8 36% 25 74.88 0.0
04 18:15 SW 17 G 31 16.09 Partly Cloudy FEW080 SCT090 SCT120 24 9 39% 25 74.88 0.0
04 17:55 SW 19 G 37 16.09 Partly Cloudy FEW065 FEW080 SCT110 23 9 41% 74.9 0.0
04 17:35 W 17 16.09 Mostly Cloudy SCT075 BKN085 23 10 44% 74.93 0.0
04 17:15 SW 26 G 35 16.09 Mostly Cloudy BKN075 BKN085 23 9 41% 74.96 0.0
04 16:55 SW 35 G 46 16.09 Partly Cloudy and Breezy SCT075 SCT085 24 8 36% 25 74.96 0.0
04 16:35 SW 30 G 43 16.09 Partly Cloudy SCT080 SCT090 24 8 36% 25 74.96 0.0
04 16:15 SW 31 G 52 16.09 Mostly Cloudy BKN080 BKN090 24 7 34% 25 74.98 0.0
04 15:55 SW 28 G 44 16.09 Mostly Cloudy BKN080 BKN085 23 6 33% 74.98 0.0
04 15:35 SW 26 G 50 16.09 Fair CLR 24 4 27% 25 75.01 0.0
04 15:15 SW 26 G 39 16.09 Fair CLR 24 5 29% 25 75.01 0.0
04 14:55 SW 30 G 46 16.09 A Few Clouds FEW080 23 5 31% 75.03 0.0
04 14:35 SW 31 G 41 16.09 Fair CLR 23 5 31% 75.03 0.0
04 14:15 SW 22 G 41 16.09 Fair CLR 23 4 29% 75.06 0.0
04 13:55 SW 28 G 43 16.09 Fair CLR 23 4 23.3 10 29% 75.08 0.0
04 13:35 W 28 G 56 16.09 Fair CLR 23 3 27% 75.11 0.0
04 13:15 SW 30 G 44 16.09 Fair CLR 23 3 27% 75.11 0.0
04 12:55 SW 19 G 44 16.09 Fair CLR 23 4 29% 75.13 0.0
04 12:35 SW 30 G 44 16.09 Fair CLR 22 4 31% 75.16 0.0
04 12:15 SW 28 G 39 16.09 Fair CLR 22 4 31% 75.16 0.0
04 11:55 SW 24 G 43 16.09 Fair CLR 21 5 35% 75.18 0.0
04 11:35 SW 24 G 33 16.09 Fair CLR 20 7 43% 75.21 0.0
04 11:15 SW 19 16.09 Fair CLR 20 8 46% 75.23 0.0
04 10:55 SW 20 16.09 Fair CLR 19 8 49% 75.23 0.0
04 10:35 SW 17 16.09 Fair CLR 18 8 52% 75.26 0.0
04 10:15 S 19 16.09 Fair CLR 16 7 55% 75.26 0.0
04 09:55 S 19 16.09 Fair CLR 15 8 63% 75.26 0.0
04 09:35 SW 15 16.09 Fair CLR 15 7 59% 75.29 0.0
04 09:15 SW 19 16.09 Fair CLR 14 7 63% 75.31 0.0
04 08:55 SW 22 16.09 Fair CLR 13 7 67% 75.31 0.0
04 08:35 SW 19 16.09 Fair CLR 12 7 72% 75.31 0.0
04 08:15 S 15 G 28 16.09 Fair CLR 11 6 72% 75.31 0.0
04 07:55 SW 17 16.09 Fair CLR 10 6 10 7.6 76% 8 75.31 0.0
04 07:35 SW 19 16.09 Fair CLR 9 6 82% 7 75.31 0.0
04 07:15 SW 17 16.09 Fair CLR 9 6 82% 7 75.31 0.0
04 06:55 SW 13 16.09 Fair CLR 8 5 82% 6 75.29 0.0
04 06:35 S 13 16.09 Fair CLR 8 5 82% 6 75.29 0.0
04 06:15 S 11 16.09 Fair CLR 8 5 82% 6 75.29 0.0
04 05:55 S 11 16.09 Fair CLR 8 5 82% 6 75.31 0.0
04 05:35 S 11 16.09 Fair CLR 8 5 82% 6 75.31 0.0
04 05:15 S 13 16.09 Fair CLR 8 5 82% 6 75.31 0.0
04 04:55 S 15 16.09 Fair CLR 8 5 82% 6 75.31 0.0
04 04:35 S 17 16.09 Fair CLR 8 5 82% 6 75.31 0.0
04 04:15 S 15 16.09 Fair CLR 9 5 76% 7 75.34 0.0
04 03:55 S 13 16.09 Fair CLR 9 5 76% 7 75.34 0.0
04 03:35 S 15 16.09 Fair CLR 9 5 76% 7 75.36 0.0
04 03:15 S 17 16.09 Fair CLR 9 5 76% 7 75.39 0.0
04 02:55 SW 17 16.09 Fair CLR 9 5 76% 7 75.39 0.0
04 02:35 SW 17 16.09 Fair CLR 9 5 76% 7 75.41 0.0
04 02:15 SW 19 16.09 Fair CLR 9 5 76% 7 75.44 0.0
04 01:55 SW 20 16.09 Fair CLR 9 5 11.4 8.8 76% 6 75.46 0.0
04 01:35 SW 20 G 28 16.09 Fair CLR 9 5 76% 6 75.49 0.0
04 01:15 SW 19 16.09 Fair CLR 9 4 71% 7 75.49 0.0
04 00:55 S 19 16.09 Fair CLR 9 4 71% 7 75.51 0.0
04 00:35 S 20 16.09 Fair CLR 10 4 67% 8 75.51 0.0
04 00:15 S 24 G 30 16.09 Fair CLR 9 4 71% 6 75.51 0.0
03 23:55 S 20 16.09 Fair CLR 9 4 71% 6 75.54 0.0
03 23:35 S 19 16.09 Fair CLR 9 4 71% 7 75.57 0.0
03 23:15 S 19 16.09 Fair CLR 9 4 71% 7 75.54 0.0
03 22:55 S 19 16.09 Fair CLR 10 4 67% 8 75.57 0.0
03 22:35 S 24 16.09 Mostly Cloudy BKN065 10 4 67% 7 75.57 0.0
03 22:15 S 17 16.09 Mostly Cloudy BKN065 10 4 67% 8 75.59 0.0
03 21:55 S 17 16.09 A Few Clouds FEW075 10 4 67% 8 75.57 0.0
03 21:35 S 17 16.09 Fair CLR 10 4 67% 8 75.57 0.0
03 21:15 S 22 16.09 Fair CLR 10 4 67% 7 75.57 0.0
03 20:55 S 20 16.09 A Few Clouds FEW100 10 4 67% 8 75.59 0.0
03 20:35 S 20 16.09 Mostly Cloudy BKN100 11 4 62% 75.59 0.0
03 20:15 S 26 16.09 Mostly Cloudy BKN100 11 4 62% 75.59 0.0
03 19:55 S 22 G 37 16.09 Mostly Cloudy FEW070 BKN100 11 4 17.3 11.4 62% 75.62 0.0
03 19:35 S 24 G 31 16.09 Overcast OVC070 11 4 62% 75.64 0.0
03 19:15 SW 22 G 33 16.09 Overcast BKN070 OVC085 12 4 58% 75.64 0.0
03 18:55 S 26 G 37 16.09 Overcast OVC085 12 4 58% 75.67 0.0
03 18:35 SW 28 G 43 16.09 Overcast OVC075 12 4 58% 75.69 0.0
03 18:15 SW 20 G 39 16.09 Light Rain OVC075 12 4 58% 75.69 0.0
03 17:55 SW 30 G 39 16.09 Overcast SCT065 OVC075 12 4 58% 75.69 0.0
03 17:35 SW 28 G 39 16.09 Overcast BKN065 OVC075 14 3 48% 75.72 0.0
03 17:15 SW 26 G 41 16.09 Overcast SCT050 OVC075 14 3 48% 75.69 0.0
03 16:55 SW 26 G 48 16.09 Overcast BKN075 OVC095 15 2 42% 75.69 0.0
03 16:35 SW 30 G 50 16.09 Overcast OVC075 15 2 42% 75.69 0.0
03 16:15 SW 28 G 43 16.09 Overcast OVC065 16 2 39% 75.69 0.0
03 15:55 SW 28 G 44 16.09 Overcast OVC065 16 1 36% 75.69 0.0
03 15:15 SW 35 G 56 16.09 Mostly Cloudy and Breezy BKN065 17 2 37% 75.72 0.0
03 14:55 SW 33 G 44 16.09 Mostly Cloudy and Breezy BKN065 17 2 37% 75.74 0.0
03 14:35 SW 28 G 46 16.09 A Few Clouds FEW065 17 2 37% 75.74 0.0
03 14:15 SW 26 G 33 16.09 A Few Clouds FEW090 17 2 37% 75.77 0.0
03 13:55 W 26 G 39 16.09 Mostly Cloudy BKN090 16 2 16.3 5.7 39% 75.79 0.0
03 13:35 SW 28 16.09 Overcast OVC090 15 2 42% 75.84 0.0
03 13:15 SW 22 G 50 16.09 Overcast OVC100 14 2 44% 75.87 0.0
03 12:55 SW 30 G 43 16.09 Overcast FEW085 OVC100 14 1 41% 75.87 0.0
03 12:35 SW 28 G 39 16.09 Overcast BKN085 OVC110 14 1 41% 75.9 0.0
03 12:15 SW 30 G 44 16.09 Mostly Cloudy SCT085 BKN110 14 1 41% 75.9 0.0
03 11:55 SW 30 G 43 16.09 A Few Clouds FEW110 14 1 41% 75.92 0.0
03 11:35 SW 26 G 39 16.09 A Few Clouds FEW085 FEW120 13 1 44% 75.92 0.0
03 11:15 SW 20 G 33 16.09 Mostly Cloudy BKN085 13 1 44% 75.95 0.0
03 10:55 W 24 16.09 Overcast OVC085 12 0 44% 75.95 0.0
03 10:35 W 24 G 33 16.09 Overcast OVC085 11 0 47% 75.97 0.0
03 10:15 SW 20 G 30 16.09 Overcast OVC085 10 -1 47% 8 75.97 0.0
03 09:55 SW 22 G 33 16.09 Overcast OVC095 10 -1 47% 7 75.97 0.0
03 09:35 SW 20 G 33 16.09 Overcast OVC095 9 -1 50% 6 75.97 0.0
03 09:15 SW 19 G 30 16.09 Overcast OVC095 9 -1 50% 7 75.97 0.0
03 08:55 SW 15 16.09 Mostly Cloudy BKN095 BKN110 9 -1 50% 7 75.97 0.0
03 08:35 SW 19 16.09 Mostly Cloudy BKN095 8 -1 53% 5 75.97 0.0
03 08:15 SW 17 16.09 A Few Clouds FEW095 7 -1 57% 4 76 0.0
03 07:55 SW 19 16.09 Fair CLR 6 -1 5.7 1.2 61% 3 75.97 0.0
03 07:35 SW 17 16.09 Fair CLR 5 -2 61% 2 75.97 0.0
03 07:15 SW 15 16.09 Fair CLR 4 -2 65% 1 75.97 0.0
03 06:55 SW 15 16.09 Fair CLR 3 -2 70% -0 75.97 0.0
03 06:35 SW 13 16.09 Fair CLR 3 -3 65% 0 75.97 0.0
03 06:15 SW 13 16.09 Fair CLR 2 -3 70% -1 75.97 0.0
03 05:55 SW 13 16.09 Fair CLR 2 -3 70% -1 76 0.0
03 05:35 SW 13 16.09 Fair CLR 2 -3 70% -1 76 0.0
03 05:15 SW 11 16.09 Fair CLR 3 -3 65% 0 76.02 0.0
03 04:55 SW 15 16.09 Fair CLR 3 -3 65% -0 76.02 0.0
03 04:35 S 13 16.09 Fair CLR 3 -4 60% 0 76.02 0.0
03 04:15 SW 13 16.09 Fair CLR 2 -4 65% -1 76.02 0.0
03 03:55 SW 11 16.09 Fair CLR 2 -4 65% -1 76.05 0.0
03 03:35 SW 11 16.09 A Few Clouds FEW090 2 -4 65% -1 76.05 0.0
03 03:15 SW 11 16.09 Partly Cloudy SCT090 1 -4 70% -2 76.07 0.0
03 02:55 SW 9 16.09 A Few Clouds FEW090 2 -5 60% -0 76.07 0.0
03 02:35 S 9 16.09 Fair CLR 2 -5 60% -0 76.1 0.0
03 02:15 S 6 16.09 Fair CLR 2 -5 60% 76.1 0.0
03 01:55 SW 7 16.09 Fair CLR 2 -5 8.3 1.2 60% 0 76.12 0.0
03 01:35 SW 7 16.09 Fair CLR 2 -5 60% 0 76.15 0.0
03 01:15 SW 7 16.09 Fair CLR 2 -5 60% 0 76.15 0.0
03 00:55 SW 7 16.09 Fair CLR 2 -5 60% 0 76.15 0.0
03 00:35 SW 7 16.09 Fair CLR 2 -4 65% 0 76.15 0.0
03 00:15 S 6 16.09 Fair CLR 3 -4 60% 76.17 0.0
02 23:55 S 6 16.09 Fair CLR 2 -4 65% 76.17 0.0
02 23:35 S 6 16.09 Fair CLR 2 -4 65% 76.17 0.0
02 23:15 S 6 16.09 Fair CLR 2 -4 65% 76.2 0.0
02 22:55 SW 6 16.09 Fair CLR 3 -4 60% 76.2 0.0
02 22:35 SW 6 16.09 Fair CLR 3 -4 60% 76.2 0.0
02 22:15 SW 7 16.09 Fair CLR 4 -4 56% 2 76.2 0.0
02 21:55 SW 7 16.09 Fair CLR 4 -4 56% 2 76.2 0.0
02 21:35 SW 7 16.09 Fair CLR 5 -4 53% 4 76.17 0.0
02 21:15 SW 7 16.09 Fair CLR 6 -5 46% 5 76.17 0.0
02 20:55 W 9 16.09 Fair CLR 6 -5 46% 4 76.17 0.0
02 20:35 W 9 16.09 Fair CLR 7 -5 43% 5 76.17 0.0
02 20:15 W 11 16.09 Fair CLR 8 -5 40% 6 76.17 0.0
02 19:55 W 15 16.09 Fair CLR 8 -5 10.8 7.2 40% 6 76.17 0.0
02 19:35 W 13 16.09 Fair CLR 9 -4 40% 7 76.17 0.0
02 19:15 W 15 16.09 Partly Cloudy FEW065 SCT075 9 -4 40% 7 76.17 0.0
02 18:55 W 13 16.09 Mostly Cloudy BKN065 9 -4 40% 7 76.17 0.0
02 18:35 W 19 16.09 Mostly Cloudy BKN070 10 -3 40% 8 76.17 0.0
02 18:15 W 15 16.09 Mostly Cloudy BKN060 9 -3 43% 7 76.17 0.0
02 17:55 W 11 16.09 Overcast OVC060 9 -4 40% 8 76.17 0.0
02 17:35 W 13 16.09 Mostly Cloudy BKN070 9 -4 40% 7 76.2 0.0
02 17:15 NW 13 16.09 Mostly Cloudy BKN070 9 -4 40% 7 76.2 0.0
02 16:55 NW 13 16.09 Mostly Cloudy BKN070 10 -3 40% 8 76.2 0.0
02 16:35 NW 22 16.09 Overcast FEW060 OVC070 9 -4 40% 6 76.23 0.0
02 16:15 W 11 16.09 Overcast BKN060 OVC070 10 -3 40% 9 76.23 0.0
02 15:55 W 13 16.09 Mostly Cloudy SCT060 BKN070 9 -4 40% 7 76.25 0.0
02 15:35 W 17 16.09 Mostly Cloudy SCT055 BKN070 8 -3 46% 6 76.28 0.0
02 15:15 W 15 16.09 Overcast SCT055 OVC070 9 -3 43% 7 76.28 0.0
02 14:55 NW 15 16.09 Overcast OVC060 9 -3 43% 7 76.3 0.0
02 14:35 W 15 16.09 Overcast SCT060 OVC070 8 -3 46% 6 76.3 0.0
02 14:15 W 11 16.09 Overcast SCT050 OVC070 8 -4 43% 6 76.33 0.0
02 13:55 W 17 G 26 16.09 Overcast BKN060 OVC070 7 -4 9 0.8 46% 4 76.33 0.0
02 13:35 Vrbl 11 16.09 Overcast SCT060 OVC070 9 -3 43% 8 76.33 0.0
02 13:15 NW 22 G 31 16.09 Overcast OVC060 7 -5 43% 4 76.35 0.0
02 12:55 W 11 16.09 Overcast OVC060 7 -5 43% 5 76.35 0.0
02 12:35 N 11 16.09 Overcast BKN055 OVC065 7 -4 46% 5 76.38 0.0
02 12:15 Vrbl 9 16.09 Overcast OVC055 7 -5 43% 5 76.38 0.0
02 11:55 N 13 16.09 Mostly Cloudy BKN055 7 -4 46% 5 76.38 0.0
02 11:35 NW 15 16.09 Mostly Cloudy BKN050 7 -4 46% 5 76.38 0.0
02 11:15 NW 9 16.09 Mostly Cloudy BKN050 6 -5 46% 4 76.38 0.0
02 10:55 N 13 16.09 Mostly Cloudy SCT047 BKN055 6 -5 46% 4 76.38 0.0
02 10:35 N 11 16.09 A Few Clouds FEW045 6 -5 46% 4 76.38 0.0
02 10:15 NW 11 16.09 Fair CLR 6 -4 49% 4 76.38 0.0
02 09:55 NW 13 16.09 Fair CLR 5 -4 53% 2 76.38 0.0
02 09:35 N 15 16.09 Fair CLR 5 -3 57% 2 76.4 0.0
02 09:15 N 11 16.09 Fair CLR 4 -2 65% 2 76.4 0.0
02 08:55 N 13 16.09 Fair CLR 3 -2 70% 0 76.4 0.0
02 08:35 N 9 16.09 Fair CLR 2 -1 81% -0 76.4 0.0
02 08:15 N 11 16.09 Fair CLR 2 -2 75% -1 76.38 0.0
02 07:55 NW 7 16.09 Fair CLR 1 -2 2.2 -1.7 81% -1 76.38 0.0
02 07:35 Vrbl 6 16.09 Fair CLR 0 -2 87% 76.38 0.0
02 07:15 NW 6 16.09 Fair CLR 0 -3 80% 76.38 0.0
02 06:55 W 4 16.09 Fair CLR -1 -3 86% 76.35 0.0
02 06:35 W 6 16.09 Fair CLR -1 -3 86% 76.35 0.0
02 06:15 NW 2 16.09 Fair CLR 0 -3 80% 76.33 0.0
02 05:55 N 2 16.09 Fair CLR -1 -3 86% 76.33 0.0
02 05:35 W 2 16.09 Fair CLR 0 -3 80% 76.33 0.0
02 05:15 NW 2 16.09 Fair CLR 0 -3 80% 76.33 0.0
02 04:55 NW 4 16.09 Fair CLR 0 -3 80% 76.3 0.0
02 04:35 NW 6 16.09 Fair CLR 0 -3 80% 76.3 0.0
02 04:15 NW 6 16.09 Fair CLR 0 -3 80% 76.3 0.0
02 03:55 NW 7 16.09 Fair CLR 0 -3 80% -2 76.3 0.0
02 03:35 NW 6 16.09 Fair CLR 1 -3 75% 76.3 0.0
02 03:15 NW 7 16.09 Partly Cloudy SCT080 1 -3 75% -1 76.3 0.0
02 02:55 W 9 16.09 Overcast OVC080 1 -3 75% -2 76.3 0.0
02 02:35 W 7 16.09 Overcast OVC080 2 -2 75% 0 76.3 0.0
02 02:15 NW 6 16.09 Overcast OVC080 2 -4 65% 76.3 0.0
02 01:55 W 6 16.09 Partly Cloudy SCT080 2 -4 6.3 2 65% 76.3 0.0
02 01:35 NW 6 16.09 Fair CLR 2 -4 65% 76.33 0.0
02 01:15 NW 7 16.09 Fair CLR 3 -4 60% 1 76.3 0.0
02 00:55 NW 7 16.09 Partly Cloudy SCT075 3 -4 60% 1 76.3 0.0
02 00:35 N 11 16.09 Overcast OVC075 4 -4 56% 2 76.3 0.0
02 00:15 N 9 16.09 Overcast OVC075 4 -4 56% 2 76.28 0.0
01 23:55 N 9 16.09 Overcast OVC075 4 -4 56% 2 76.28 0.0
01 23:35 NW 9 16.09 Overcast FEW060 OVC075 4 -4 56% 2 76.28 0.0
01 23:15 N 6 16.09 Overcast OVC075 4 -4 56% 76.28 0.0
01 22:55 N 13 16.09 Overcast SCT050 OVC075 5 -4 53% 2 76.25 0.0
Date Time (edt) Wind (kph) Vis. (km) Weather Sky Cond. Air Dwpt Max. Min. Relative Humidity Wind Chill (°C) Heat Index (°C) altimeter (cm) sea level (mb) 1 hr 3 hr 6 hr
6 hour
Temperature (ºC) Pressure Precipitation (cm)